createdAt,value
2024-01-15T00:00:37.774Z,-0.17
2024-01-15T00:03:29.501Z,-0.15
2024-01-15T00:06:01.660Z,-0.16
2024-01-15T00:08:33.178Z,-0.15
2024-01-15T00:11:05.200Z,-0.13
2024-01-15T00:13:36.599Z,-0.13
2024-01-15T00:16:09.088Z,-0.15
2024-01-15T00:18:40.638Z,-0.18
2024-01-15T00:21:12.021Z,-0.19
2024-01-15T00:23:45.941Z,-0.21
2024-01-15T00:26:17.474Z,-0.20
2024-01-15T00:28:48.953Z,-0.20
2024-01-15T00:31:21.019Z,-0.18
2024-01-15T00:33:52.667Z,-0.16
2024-01-15T00:36:24.204Z,-0.15
2024-01-15T00:38:55.957Z,-0.13
2024-01-15T00:41:28.818Z,-0.14
2024-01-15T00:44:00.151Z,-0.15
2024-01-15T00:46:31.512Z,-0.18
2024-01-15T00:49:02.861Z,-0.21
2024-01-15T00:51:34.360Z,-0.24
2024-01-15T00:54:05.713Z,-0.28
2024-01-15T00:56:37.072Z,-0.24
2024-01-15T00:59:08.955Z,-0.22
2024-01-15T01:01:44.097Z,-0.22
2024-01-15T01:04:15.770Z,-0.23
2024-01-15T01:06:47.260Z,-0.23
2024-01-15T01:09:18.644Z,-0.23
2024-01-15T01:11:50.252Z,-0.24
2024-01-15T01:14:21.610Z,-0.28
2024-01-15T01:16:52.943Z,-0.30
2024-01-15T01:19:24.469Z,-0.33
2024-01-15T01:21:55.971Z,-0.33
2024-01-15T01:24:27.341Z,-0.30
2024-01-15T01:26:58.869Z,-0.29
2024-01-15T01:29:30.256Z,-0.28
2024-01-15T01:32:01.529Z,-0.25
2024-01-15T01:34:35.174Z,-0.21
2024-01-15T01:37:06.925Z,-0.18
2024-01-15T01:39:38.245Z,-0.16
2024-01-15T01:42:10.308Z,-0.14
2024-01-15T01:44:41.740Z,-0.14
2024-01-15T01:47:13.420Z,-0.15
2024-01-15T01:49:45.275Z,-0.17
2024-01-15T01:52:17.449Z,-0.20
2024-01-15T01:54:49.107Z,-0.24
2024-01-15T01:57:21.550Z,-0.23
2024-01-15T01:59:55.275Z,-0.23
2024-01-15T02:02:28.018Z,-0.24
2024-01-15T02:04:59.513Z,-0.25
2024-01-15T02:07:31.399Z,-0.26
2024-01-15T02:10:02.735Z,-0.26
2024-01-15T02:12:34.601Z,-0.26
2024-01-15T02:15:06.971Z,-0.26
2024-01-15T02:17:58.380Z,-0.26
2024-01-15T02:20:30.227Z,-0.27
2024-01-15T02:23:10.074Z,-0.28
2024-01-15T02:25:44.590Z,-0.26
2024-01-15T02:28:17.375Z,-0.24
2024-01-15T02:30:49.120Z,-0.22
2024-01-15T02:33:20.744Z,-0.19
2024-01-15T02:35:52.180Z,-0.18
2024-01-15T02:38:23.577Z,-0.15
2024-01-15T02:40:54.851Z,-0.14
2024-01-15T02:43:26.126Z,-0.13
2024-01-15T02:45:57.490Z,-0.12
2024-01-15T02:48:28.999Z,-0.11
2024-01-15T02:51:00.487Z,-0.11
2024-01-15T02:53:32.026Z,-0.12
2024-01-15T02:56:03.299Z,-0.15
2024-01-15T02:58:34.783Z,-0.17
2024-01-15T03:01:06.688Z,-0.18
2024-01-15T03:03:38.264Z,-0.20
2024-01-15T03:06:10.040Z,-0.17
2024-01-15T03:08:41.462Z,-0.13
2024-01-15T03:11:12.844Z,-0.09
2024-01-15T03:13:44.161Z,-0.05
2024-01-15T03:16:15.468Z,-0.00
2024-01-15T03:18:46.985Z,0.06
2024-01-15T03:21:18.542Z,0.11
2024-01-15T03:23:50.044Z,0.14
2024-01-15T03:26:21.484Z,0.17
2024-01-15T03:28:52.963Z,0.19
2024-01-15T03:31:24.378Z,0.20
2024-01-15T03:33:55.984Z,0.20
2024-01-15T03:36:27.459Z,0.19
2024-01-15T03:38:58.800Z,0.18
2024-01-15T03:41:30.203Z,0.16
2024-01-15T03:44:01.527Z,0.13
2024-01-15T03:46:33.036Z,0.11
2024-01-15T03:49:05.292Z,0.09
2024-01-15T03:51:36.861Z,0.08
2024-01-15T03:54:08.421Z,0.11
2024-01-15T03:56:39.884Z,0.13
2024-01-15T03:59:11.228Z,0.15
2024-01-15T04:01:42.747Z,0.18
2024-01-15T04:04:17.466Z,0.24
2024-01-15T04:06:49.432Z,0.30
2024-01-15T04:09:21.061Z,0.35
2024-01-15T04:11:52.384Z,0.38
2024-01-15T04:14:23.725Z,0.40
2024-01-15T04:16:55.055Z,0.42
2024-01-15T04:19:26.413Z,0.43
2024-01-15T04:21:57.756Z,0.43
2024-01-15T04:24:29.070Z,0.41
2024-01-15T04:27:00.786Z,0.39
2024-01-15T04:29:32.081Z,0.35
2024-01-15T04:32:03.406Z,0.31
2024-01-15T04:34:34.891Z,0.28
2024-01-15T04:37:06.686Z,0.25
2024-01-15T04:39:38.010Z,0.23
2024-01-15T04:42:10.744Z,0.27
2024-01-15T04:44:42.149Z,0.30
2024-01-15T04:47:13.492Z,0.32
2024-01-15T04:49:44.916Z,0.35
2024-01-15T04:52:16.366Z,0.37
2024-01-15T04:54:47.760Z,0.41
2024-01-15T04:57:19.237Z,0.42
2024-01-15T04:59:50.608Z,0.43
2024-01-15T05:02:21.887Z,0.44
2024-01-15T05:04:53.217Z,0.44
2024-01-15T05:07:24.640Z,0.44
2024-01-15T05:09:56.011Z,0.43
2024-01-15T05:12:27.510Z,0.40
2024-01-15T05:14:59.071Z,0.36
2024-01-15T05:17:30.469Z,0.32
2024-01-15T05:20:02.072Z,0.27
2024-01-15T05:22:33.716Z,0.24
2024-01-15T05:25:05.487Z,0.22
2024-01-15T05:27:36.912Z,0.25
2024-01-15T05:30:09.885Z,0.26
2024-01-15T05:32:40.051Z,0.26
2024-01-15T05:35:11.781Z,0.26
2024-01-15T05:37:45.882Z,0.25
2024-01-15T05:40:17.693Z,0.24
2024-01-15T05:42:49.156Z,0.24
2024-01-15T05:45:20.840Z,0.22
2024-01-15T05:47:52.394Z,0.20
2024-01-15T05:50:24.123Z,0.20
2024-01-15T05:52:55.510Z,0.18
2024-01-15T05:55:26.974Z,0.17
2024-01-15T05:57:58.407Z,0.17
2024-01-15T06:00:30.514Z,0.18
2024-01-15T06:03:01.887Z,0.19
2024-01-15T06:05:33.421Z,0.19
2024-01-15T06:08:05.279Z,0.18
2024-01-15T06:10:37.271Z,0.19
2024-01-15T06:13:08.681Z,0.17
2024-01-15T06:15:40.192Z,0.16
2024-01-15T06:18:11.659Z,0.14
2024-01-15T06:20:43.832Z,0.13
2024-01-15T06:23:17.887Z,0.11
2024-01-15T06:25:50.541Z,0.10
2024-01-15T06:28:21.953Z,0.10
2024-01-15T06:30:53.794Z,0.10
2024-01-15T06:33:25.462Z,0.13
2024-01-15T06:35:57.664Z,0.14
2024-01-15T06:38:29.131Z,0.17
2024-01-15T06:41:00.485Z,0.20
2024-01-15T06:43:31.972Z,0.23
2024-01-15T06:46:06.429Z,0.25
2024-01-15T06:48:39.238Z,0.26
2024-01-15T06:51:10.690Z,0.26
2024-01-15T06:53:42.115Z,0.26
2024-01-15T06:56:13.531Z,0.23
2024-01-15T06:58:44.866Z,0.22
2024-01-15T07:01:17.060Z,0.20
2024-01-15T07:03:48.594Z,0.17
2024-01-15T07:06:20.262Z,0.16
2024-01-15T07:08:52.776Z,0.18
2024-01-15T07:11:24.079Z,0.20
2024-01-15T07:13:55.458Z,0.23
2024-01-15T07:16:36.483Z,0.24
2024-01-15T07:19:09.628Z,0.26
2024-01-15T07:21:44.332Z,0.27
2024-01-15T07:24:15.794Z,0.27
2024-01-15T07:26:47.090Z,0.25
2024-01-15T07:29:18.373Z,0.23
2024-01-15T07:31:53.795Z,0.23
2024-01-15T07:34:25.434Z,0.23
2024-01-15T07:36:57.178Z,0.23
2024-01-15T07:39:30.100Z,0.21
2024-01-15T07:42:01.559Z,0.25
2024-01-15T07:44:33.028Z,0.28
2024-01-15T07:47:04.843Z,0.30
2024-01-15T07:49:36.308Z,0.29
2024-01-15T07:52:08.351Z,0.28
2024-01-15T07:54:39.777Z,0.29
2024-01-15T07:57:11.264Z,0.28
2024-01-15T07:59:42.969Z,0.30
2024-01-15T08:02:14.561Z,0.30
2024-01-15T08:04:47.156Z,0.29
2024-01-15T08:07:19.398Z,0.27
2024-01-15T08:09:50.869Z,0.25
2024-01-15T08:12:23.203Z,0.23
2024-01-15T08:14:55.421Z,0.22
2024-01-15T08:17:29.684Z,0.25
2024-01-15T08:20:02.783Z,0.28
2024-01-15T08:22:35.380Z,0.27
2024-01-15T08:25:09.328Z,0.29
2024-01-15T08:27:41.089Z,0.28
2024-01-15T08:30:14.730Z,0.30
2024-01-15T08:32:46.458Z,0.29
2024-01-15T08:35:18.035Z,0.28
2024-01-15T08:37:49.375Z,0.28
2024-01-15T08:40:21.165Z,0.27
2024-01-15T08:42:52.614Z,0.26
2024-01-15T08:45:24.444Z,0.26
2024-01-15T08:47:55.869Z,0.29
2024-01-15T08:50:27.425Z,0.32
2024-01-15T08:52:58.944Z,0.34
2024-01-15T08:55:30.370Z,0.36
2024-01-15T08:58:01.756Z,0.38
2024-01-15T09:00:33.262Z,0.40
2024-01-15T09:03:06.821Z,0.41
2024-01-15T09:05:38.412Z,0.39
2024-01-15T09:08:09.958Z,0.39
2024-01-15T09:10:42.182Z,0.36
2024-01-15T09:13:13.486Z,0.38
2024-01-15T09:15:45.869Z,0.42
2024-01-15T09:18:17.363Z,0.46
2024-01-15T09:20:48.833Z,0.49
2024-01-15T09:23:20.188Z,0.53
2024-01-15T09:25:54.068Z,0.56
2024-01-15T09:28:25.673Z,0.57
2024-01-15T09:30:57.164Z,0.58
2024-01-15T09:33:28.730Z,0.58
2024-01-15T09:36:02.945Z,0.58
2024-01-15T09:38:34.706Z,0.57
2024-01-15T09:41:06.936Z,0.56
2024-01-15T09:43:39.457Z,0.57
2024-01-15T09:46:11.983Z,0.58
2024-01-15T09:48:43.588Z,0.64
2024-01-15T09:51:16.174Z,0.70
2024-01-15T09:53:49.287Z,0.77
2024-01-15T09:56:21.091Z,0.82
2024-01-15T09:58:53.981Z,0.86
2024-01-15T10:01:26.076Z,0.89
2024-01-15T10:03:58.088Z,0.89
2024-01-15T10:06:30.687Z,0.90
2024-01-15T10:09:02.586Z,0.88
2024-01-15T10:11:34.350Z,0.89
2024-01-15T10:14:06.572Z,0.89
2024-01-15T10:16:39.110Z,0.91
2024-01-15T10:19:12.082Z,0.93
2024-01-15T10:21:42.190Z,0.96
2024-01-15T10:24:14.154Z,0.98
2024-01-15T10:26:45.916Z,0.99
2024-01-15T10:29:18.407Z,1.02
2024-01-15T10:31:50.598Z,1.04
2024-01-15T10:34:22.980Z,1.05
2024-01-15T10:36:56.691Z,1.04
2024-01-15T10:39:28.544Z,1.05
2024-01-15T10:42:00.043Z,1.09
2024-01-15T10:44:31.746Z,1.11
2024-01-15T10:47:03.309Z,1.11
2024-01-15T10:49:34.858Z,1.12
2024-01-15T10:52:07.827Z,1.13
2024-01-15T10:54:41.267Z,1.14
2024-01-15T10:57:14.575Z,1.15
2024-01-15T10:59:45.851Z,1.13
2024-01-15T11:02:17.759Z,1.12
2024-01-15T11:04:49.361Z,1.09
2024-01-15T11:07:25.533Z,1.06
2024-01-15T11:10:00.066Z,1.09
2024-01-15T11:12:31.503Z,1.11
2024-01-15T11:15:10.327Z,1.13
2024-01-15T11:17:54.342Z,1.17
2024-01-15T11:20:25.805Z,1.20
2024-01-15T11:22:59.029Z,1.24
2024-01-15T11:25:36.168Z,1.29
2024-01-15T11:28:07.914Z,1.36
2024-01-15T11:30:39.353Z,1.40
2024-01-15T11:33:50.069Z,1.43
2024-01-15T11:36:21.664Z,1.48
2024-01-15T11:38:53.001Z,1.51
2024-01-15T11:41:26.637Z,1.54
2024-01-15T11:44:01.386Z,1.58
2024-01-15T11:46:39.182Z,1.63
2024-01-15T11:49:18.285Z,1.66
2024-01-15T11:51:50.431Z,1.71
2024-01-15T11:54:24.865Z,1.77
2024-01-15T11:56:58.489Z,1.83
2024-01-15T11:59:29.800Z,1.86
2024-01-15T12:02:01.632Z,1.90
2024-01-15T12:04:33.018Z,1.93
2024-01-15T12:07:05.330Z,1.92
2024-01-15T12:09:36.892Z,1.92
2024-01-15T12:12:15.824Z,1.90
2024-01-15T12:14:47.390Z,1.87
2024-01-15T12:17:19.503Z,1.87
2024-01-15T12:19:51.057Z,1.85
2024-01-15T12:22:22.581Z,1.85
2024-01-15T12:24:53.859Z,1.83
2024-01-15T12:27:26.040Z,1.81
2024-01-15T12:29:57.619Z,1.78
2024-01-15T12:32:29.032Z,1.75
2024-01-15T12:35:01.385Z,1.75
2024-01-15T12:37:34.418Z,1.76
2024-01-15T12:40:07.900Z,1.78
2024-01-15T12:42:39.339Z,1.84
2024-01-15T12:45:13.876Z,1.93
2024-01-15T12:47:46.019Z,2.04
2024-01-15T12:50:20.149Z,2.16
2024-01-15T12:52:52.720Z,2.25
2024-01-15T12:55:24.160Z,2.31
2024-01-15T12:57:56.447Z,2.39
2024-01-15T13:00:28.420Z,2.47
2024-01-15T13:03:01.986Z,2.56
2024-01-15T13:05:35.411Z,2.65
2024-01-15T13:08:08.361Z,2.69
2024-01-15T13:10:39.660Z,2.74
2024-01-15T13:13:10.945Z,2.76
2024-01-15T13:15:42.340Z,2.77
2024-01-15T13:18:14.628Z,2.74
2024-01-15T13:20:47.105Z,2.71
2024-01-15T13:23:18.685Z,2.68
2024-01-15T13:25:51.125Z,2.65
2024-01-15T13:28:23.801Z,2.63
2024-01-15T13:30:55.395Z,2.60
2024-01-15T13:33:26.947Z,2.57
2024-01-15T13:35:58.841Z,2.54
2024-01-15T13:38:35.812Z,2.51
2024-01-15T13:41:07.706Z,2.48
2024-01-15T13:43:38.985Z,2.43
2024-01-15T13:46:11.024Z,2.38
2024-01-15T13:48:42.398Z,2.34
2024-01-15T13:51:13.886Z,2.31
2024-01-15T13:53:45.348Z,2.33
2024-01-15T13:56:18.981Z,2.34
2024-01-15T13:58:52.969Z,2.35
2024-01-15T14:01:24.296Z,2.38
2024-01-15T14:03:55.917Z,2.40
2024-01-15T14:06:27.631Z,2.42
2024-01-15T14:08:58.922Z,2.39
2024-01-15T14:11:30.236Z,2.33
2024-01-15T14:14:01.490Z,2.26
2024-01-15T14:16:32.787Z,2.18
2024-01-15T14:19:04.618Z,2.12
2024-01-15T14:21:36.009Z,2.09
2024-01-15T14:24:08.909Z,2.09
2024-01-15T14:26:40.360Z,2.08
2024-01-15T14:29:11.664Z,2.08
2024-01-15T14:31:43.325Z,2.07
2024-01-15T14:34:15.231Z,2.05
2024-01-15T14:36:47.994Z,2.01
2024-01-15T14:39:21.167Z,1.96
2024-01-15T14:41:53.611Z,1.93
2024-01-15T14:44:25.172Z,1.91
2024-01-15T14:46:57.109Z,1.93
2024-01-15T14:49:28.633Z,1.93
2024-01-15T14:52:00.015Z,1.93
2024-01-15T14:54:31.357Z,1.93
2024-01-15T14:57:02.764Z,1.94
2024-01-15T14:59:34.615Z,1.97
2024-01-15T15:02:07.837Z,1.96
2024-01-15T15:04:39.175Z,1.97
2024-01-15T15:07:09.623Z,1.98
2024-01-15T15:09:42.359Z,1.98
2024-01-15T15:12:13.981Z,1.96
2024-01-15T15:14:55.997Z,1.96
2024-01-15T15:17:35.903Z,1.94
2024-01-15T15:20:09.826Z,1.91
2024-01-15T15:22:41.719Z,1.87
2024-01-15T15:25:13.492Z,1.83
2024-01-15T15:27:45.179Z,1.78
2024-01-15T15:30:17.399Z,1.75
2024-01-15T15:32:48.894Z,1.70
2024-01-15T15:35:20.901Z,1.67
2024-01-15T15:37:52.516Z,1.61
2024-01-15T15:40:25.275Z,1.57
2024-01-15T15:42:56.902Z,1.53
2024-01-15T15:45:28.295Z,1.50
2024-01-15T15:47:59.891Z,1.48
2024-01-15T15:50:34.106Z,1.45
2024-01-15T15:53:06.545Z,1.42
2024-01-15T15:55:38.352Z,1.41
2024-01-15T15:58:10.948Z,1.43
2024-01-15T16:00:42.562Z,1.45
2024-01-15T16:03:14.117Z,1.45
2024-01-15T16:05:52.171Z,1.45
2024-01-15T16:08:24.992Z,1.46
2024-01-15T16:10:56.708Z,1.47
2024-01-15T16:13:28.116Z,1.47
2024-01-15T16:23:09.016Z,1.45
2024-01-15T16:23:22.481Z,1.43
2024-01-15T16:23:37.705Z,1.44
2024-01-15T16:24:42.349Z,1.42
2024-01-15T16:27:22.214Z,1.41
2024-01-15T16:29:53.599Z,1.41
2024-01-15T16:32:24.975Z,1.39
2024-01-15T16:34:57.286Z,1.37
2024-01-15T16:37:29.307Z,1.37
2024-01-15T16:40:01.438Z,1.35
2024-01-15T16:42:33.099Z,1.36
2024-01-15T16:45:04.734Z,1.34
2024-01-15T16:47:36.379Z,1.34
2024-01-15T16:50:09.353Z,1.33
2024-01-15T16:52:40.984Z,1.32
2024-01-15T16:55:12.479Z,1.32
2024-01-15T16:57:43.837Z,1.33
2024-01-15T17:00:17.618Z,1.35
2024-01-15T17:02:49.137Z,1.36
2024-01-15T17:05:22.286Z,1.40
2024-01-15T17:07:52.497Z,1.44
2024-01-15T17:10:23.992Z,1.45
2024-01-15T17:12:55.395Z,1.48
2024-01-15T17:15:27.000Z,1.48
2024-01-15T17:17:58.522Z,1.50
2024-01-15T17:20:30.109Z,1.49
2024-01-15T17:23:01.446Z,1.49
2024-01-15T17:25:32.821Z,1.49
2024-01-15T17:28:04.529Z,1.50
2024-01-15T17:30:35.918Z,1.49
2024-01-15T17:33:08.359Z,1.49
2024-01-15T17:35:39.890Z,1.45
2024-01-15T17:38:11.946Z,1.44
2024-01-15T17:40:43.456Z,1.40
2024-01-15T17:43:14.824Z,1.38
2024-01-15T17:45:46.595Z,1.36
2024-01-15T17:48:18.208Z,1.32
2024-01-15T17:50:49.894Z,1.30
2024-01-15T17:53:21.279Z,1.28
2024-01-15T17:55:52.938Z,1.25
2024-01-15T17:58:24.285Z,1.22
2024-01-15T18:00:55.680Z,1.21
2024-01-15T18:03:27.093Z,1.21
2024-01-15T18:05:58.589Z,1.18
2024-01-15T18:08:30.584Z,1.18
2024-01-15T18:11:02.225Z,1.17
2024-01-15T18:13:34.229Z,1.23
2024-01-15T18:16:05.990Z,1.26
2024-01-15T18:18:37.706Z,1.29
2024-01-15T18:21:09.385Z,1.33
2024-01-15T18:23:41.101Z,1.36
2024-01-15T18:26:12.439Z,1.34
2024-01-15T18:28:43.781Z,1.36
2024-01-15T18:31:16.444Z,1.37
2024-01-15T18:33:48.522Z,1.35
2024-01-15T18:36:20.208Z,1.35
2024-01-15T18:38:51.594Z,1.34
2024-01-15T18:41:26.604Z,1.31
2024-01-15T18:43:58.572Z,1.31
2024-01-15T18:46:30.062Z,1.30
2024-01-15T18:49:01.487Z,1.27
2024-01-15T18:51:32.960Z,1.25
2024-01-15T18:54:04.663Z,1.24
2024-01-15T18:56:41.878Z,1.24
2024-01-15T18:59:13.517Z,1.24
2024-01-15T19:01:45.502Z,1.21
2024-01-15T19:04:16.963Z,1.18
2024-01-15T19:06:49.625Z,1.13
2024-01-15T19:09:21.723Z,1.10
2024-01-15T19:11:52.930Z,1.08
2024-01-15T19:14:24.391Z,1.04
2024-01-15T19:16:56.074Z,1.02
2024-01-15T19:19:27.425Z,1.02
2024-01-15T19:21:59.100Z,1.04
2024-01-15T19:24:31.181Z,1.06
2024-01-15T19:27:04.510Z,1.09
2024-01-15T19:29:37.576Z,1.14
2024-01-15T19:32:15.928Z,1.19
2024-01-15T19:34:47.430Z,1.23
2024-01-15T19:37:18.775Z,1.26
2024-01-15T19:39:50.103Z,1.30
2024-01-15T19:42:21.457Z,1.32
2024-01-15T19:44:52.832Z,1.34
2024-01-15T19:47:24.212Z,1.32
2024-01-15T19:49:55.841Z,1.30
2024-01-15T19:52:27.221Z,1.28
2024-01-15T19:54:58.575Z,1.26
2024-01-15T19:57:30.169Z,1.23
2024-01-15T20:00:01.570Z,1.19
2024-01-15T20:02:33.271Z,1.17
2024-01-15T20:05:06.024Z,1.13
2024-01-15T20:07:37.772Z,1.09
2024-01-15T20:10:11.644Z,1.07
2024-01-15T20:12:43.456Z,1.05
2024-01-15T20:15:15.672Z,1.05
2024-01-15T20:17:46.957Z,1.04
2024-01-15T20:20:18.566Z,1.05
2024-01-15T20:22:49.997Z,1.06
2024-01-15T20:25:21.430Z,1.07
2024-01-15T20:27:52.811Z,1.10
2024-01-15T20:30:24.111Z,1.10
2024-01-15T20:32:55.544Z,1.12
2024-01-15T20:35:26.944Z,1.16
2024-01-15T20:37:59.352Z,1.21
2024-01-15T20:40:33.353Z,1.27
2024-01-15T20:43:06.214Z,1.32
2024-01-15T20:45:37.453Z,1.40
2024-01-15T20:48:09.807Z,1.46
2024-01-15T20:50:41.330Z,1.51
2024-01-15T20:53:12.992Z,1.57
2024-01-15T20:55:44.607Z,1.62
2024-01-15T20:58:22.132Z,1.67
2024-01-15T21:00:53.426Z,1.69
2024-01-15T21:03:24.859Z,1.71
2024-01-15T21:05:57.225Z,1.74
2024-01-15T21:08:30.183Z,1.76
2024-01-15T21:11:04.614Z,1.76
2024-01-15T21:13:36.025Z,1.76
2024-01-15T21:16:08.502Z,1.76
2024-01-15T21:18:40.021Z,1.74
2024-01-15T21:21:11.942Z,1.72
2024-01-15T21:23:43.356Z,1.69
2024-01-15T21:26:15.204Z,1.65
2024-01-15T21:28:49.058Z,1.61
2024-01-15T21:31:20.521Z,1.56
2024-01-15T21:33:52.166Z,1.52
2024-01-15T21:36:23.703Z,1.50
2024-01-15T21:38:55.075Z,1.49
2024-01-15T21:41:26.535Z,1.48
2024-01-15T21:43:58.539Z,1.45
2024-01-15T21:46:29.823Z,1.42
2024-01-15T21:49:01.152Z,1.37
2024-01-15T21:51:32.572Z,1.34
2024-01-15T21:54:04.805Z,1.32
2024-01-15T21:56:37.467Z,1.34
2024-01-15T21:59:09.029Z,1.36
2024-01-15T22:01:40.381Z,1.37
2024-01-15T22:04:12.773Z,1.39
2024-01-15T22:06:44.087Z,1.43
2024-01-15T22:09:16.780Z,1.42
2024-01-15T22:11:48.507Z,1.44
2024-01-15T22:14:20.173Z,1.47
2024-01-15T22:16:51.552Z,1.49
2024-01-15T22:19:22.902Z,1.49
2024-01-15T22:21:55.779Z,1.50
2024-01-15T22:24:27.121Z,1.51
2024-01-15T22:26:58.386Z,1.51
2024-01-15T22:29:29.865Z,1.50
2024-01-15T22:32:01.303Z,1.51
2024-01-15T22:34:32.811Z,1.49
2024-01-15T22:37:05.801Z,1.48
2024-01-15T22:39:37.642Z,1.48
2024-01-15T22:42:10.070Z,1.45
2024-01-15T22:44:41.515Z,1.44
2024-01-15T22:47:12.996Z,1.44
2024-01-15T22:49:44.467Z,1.43
2024-01-15T22:52:16.461Z,1.41
2024-01-15T22:54:49.835Z,1.42
2024-01-15T22:57:21.186Z,1.42
2024-01-15T22:59:52.801Z,1.42
2024-01-15T23:02:24.724Z,1.41
2024-01-15T23:04:56.377Z,1.44
2024-01-15T23:07:31.141Z,1.46
2024-01-15T23:10:02.635Z,1.47
2024-01-15T23:12:34.644Z,1.51
2024-01-15T23:15:07.151Z,1.56
2024-01-15T23:17:39.171Z,1.61
2024-01-15T23:20:13.194Z,1.66
2024-01-15T23:22:44.795Z,1.71
2024-01-15T23:25:16.054Z,1.76
2024-01-15T23:27:47.705Z,1.80
2024-01-15T23:30:20.931Z,1.83
2024-01-15T23:32:53.368Z,1.84
2024-01-15T23:35:24.905Z,1.84
2024-01-15T23:37:56.204Z,1.83
2024-01-15T23:40:27.563Z,1.83
2024-01-15T23:42:59.262Z,1.80
2024-01-15T23:45:30.653Z,1.79
2024-01-15T23:48:02.033Z,1.75
2024-01-15T23:50:33.592Z,1.71
2024-01-15T23:53:05.307Z,1.66
2024-01-15T23:55:36.917Z,1.59
2024-01-15T23:58:09.292Z,1.51
